sensor_id;sensor_type;location;lat;lon;timestamp;P1;durP1;ratioP1;P2;durP2;ratioP2
36411;SDS011;22445;52.100;5.176;2022-11-03T00:01:45;8.13;;;2.28;;
36411;SDS011;22445;52.100;5.176;2022-11-03T00:04:13;10.07;;;2.45;;
36411;SDS011;22445;52.100;5.176;2022-11-03T00:06:40;11.02;;;2.42;;
36411;SDS011;22445;52.100;5.176;2022-11-03T00:09:08;9.15;;;2.28;;
36411;SDS011;22445;52.100;5.176;2022-11-03T00:11:35;14.10;;;2.45;;
36411;SDS011;22445;52.100;5.176;2022-11-03T00:14:02;11.70;;;2.53;;
36411;SDS011;22445;52.100;5.176;2022-11-03T00:16:28;9.93;;;2.75;;
36411;SDS011;22445;52.100;5.176;2022-11-03T00:18:54;12.85;;;2.35;;
36411;SDS011;22445;52.100;5.176;2022-11-03T00:21:19;15.30;;;2.70;;
36411;SDS011;22445;52.100;5.176;2022-11-03T00:23:45;10.40;;;2.50;;
36411;SDS011;22445;52.100;5.176;2022-11-03T00:26:12;10.98;;;2.63;;
36411;SDS011;22445;52.100;5.176;2022-11-03T00:28:40;12.07;;;2.47;;
36411;SDS011;22445;52.100;5.176;2022-11-03T00:31:07;12.73;;;3.30;;
36411;SDS011;22445;52.100;5.176;2022-11-03T00:33:38;10.73;;;2.30;;
36411;SDS011;22445;52.100;5.176;2022-11-03T00:36:04;10.85;;;2.85;;
36411;SDS011;22445;52.100;5.176;2022-11-03T00:38:31;10.23;;;2.25;;
36411;SDS011;22445;52.100;5.176;2022-11-03T00:40:57;10.00;;;2.08;;
36411;SDS011;22445;52.100;5.176;2022-11-03T00:43:24;13.88;;;2.15;;
36411;SDS011;22445;52.100;5.176;2022-11-03T00:45:51;9.07;;;2.10;;
36411;SDS011;22445;52.100;5.176;2022-11-03T00:48:17;6.72;;;2.08;;
36411;SDS011;22445;52.100;5.176;2022-11-03T00:51:02;10.93;;;2.40;;
36411;SDS011;22445;52.100;5.176;2022-11-03T00:53:45;6.35;;;2.35;;
36411;SDS011;22445;52.100;5.176;2022-11-03T00:56:12;13.75;;;2.40;;
36411;SDS011;22445;52.100;5.176;2022-11-03T00:59:02;7.68;;;2.25;;
36411;SDS011;22445;52.100;5.176;2022-11-03T01:01:33;14.20;;;2.55;;
36411;SDS011;22445;52.100;5.176;2022-11-03T01:04:00;12.07;;;2.55;;
36411;SDS011;22445;52.100;5.176;2022-11-03T01:06:49;11.02;;;2.17;;
36411;SDS011;22445;52.100;5.176;2022-11-03T01:09:18;11.57;;;2.55;;
36411;SDS011;22445;52.100;5.176;2022-11-03T01:11:49;9.38;;;2.60;;
36411;SDS011;22445;52.100;5.176;2022-11-03T01:14:21;7.78;;;1.88;;
36411;SDS011;22445;52.100;5.176;2022-11-03T01:16:47;10.48;;;2.38;;
36411;SDS011;22445;52.100;5.176;2022-11-03T01:19:15;11.05;;;2.10;;
36411;SDS011;22445;52.100;5.176;2022-11-03T01:21:42;12.27;;;2.15;;
36411;SDS011;22445;52.100;5.176;2022-11-03T01:24:07;7.80;;;2.03;;
36411;SDS011;22445;52.100;5.176;2022-11-03T01:26:33;9.90;;;2.50;;
36411;SDS011;22445;52.100;5.176;2022-11-03T01:28:59;9.00;;;2.08;;
36411;SDS011;22445;52.100;5.176;2022-11-03T01:31:25;13.63;;;2.83;;
36411;SDS011;22445;52.100;5.176;2022-11-03T01:33:52;9.45;;;2.15;;
36411;SDS011;22445;52.100;5.176;2022-11-03T01:36:19;14.70;;;2.97;;
36411;SDS011;22445;52.100;5.176;2022-11-03T01:38:45;9.80;;;2.33;;
36411;SDS011;22445;52.100;5.176;2022-11-03T01:41:21;9.35;;;2.42;;
36411;SDS011;22445;52.100;5.176;2022-11-03T01:43:49;9.77;;;2.33;;
36411;SDS011;22445;52.100;5.176;2022-11-03T01:46:22;14.82;;;2.35;;
36411;SDS011;22445;52.100;5.176;2022-11-03T01:49:07;12.82;;;2.92;;
36411;SDS011;22445;52.100;5.176;2022-11-03T01:51:35;9.15;;;1.92;;
36411;SDS011;22445;52.100;5.176;2022-11-03T01:54:03;13.07;;;3.17;;
36411;SDS011;22445;52.100;5.176;2022-11-03T01:56:31;8.82;;;3.00;;
36411;SDS011;22445;52.100;5.176;2022-11-03T01:58:58;10.45;;;2.63;;
36411;SDS011;22445;52.100;5.176;2022-11-03T02:01:24;11.27;;;2.45;;
36411;SDS011;22445;52.100;5.176;2022-11-03T02:03:54;10.93;;;2.13;;
36411;SDS011;22445;52.100;5.176;2022-11-03T02:06:23;11.48;;;3.05;;
36411;SDS011;22445;52.100;5.176;2022-11-03T02:09:23;11.40;;;2.00;;
36411;SDS011;22445;52.100;5.176;2022-11-03T02:11:41;11.00;;;2.15;;
36411;SDS011;22445;52.100;5.176;2022-11-03T02:14:25;13.55;;;2.42;;
36411;SDS011;22445;52.100;5.176;2022-11-03T02:16:55;9.43;;;2.35;;
36411;SDS011;22445;52.100;5.176;2022-11-03T02:28:31;9.98;;;1.75;;
36411;SDS011;22445;52.100;5.176;2022-11-03T02:34:03;9.98;;;2.70;;
36411;SDS011;22445;52.100;5.176;2022-11-03T02:36:53;11.25;;;2.70;;
36411;SDS011;22445;52.100;5.176;2022-11-03T02:42:20;10.52;;;2.28;;
36411;SDS011;22445;52.100;5.176;2022-11-03T02:44:46;8.40;;;2.08;;
36411;SDS011;22445;52.100;5.176;2022-11-03T02:47:12;8.20;;;2.70;;
36411;SDS011;22445;52.100;5.176;2022-11-03T02:49:48;9.82;;;2.28;;
36411;SDS011;22445;52.100;5.176;2022-11-03T02:55:08;12.50;;;2.25;;
36411;SDS011;22445;52.100;5.176;2022-11-03T02:58:04;10.02;;;2.45;;
36411;SDS011;22445;52.100;5.176;2022-11-03T03:04:05;13.55;;;2.20;;
36411;SDS011;22445;52.100;5.176;2022-11-03T03:06:33;11.70;;;2.50;;
36411;SDS011;22445;52.100;5.176;2022-11-03T03:09:03;11.85;;;3.13;;
36411;SDS011;22445;52.100;5.176;2022-11-03T03:11:32;11.25;;;2.80;;
36411;SDS011;22445;52.100;5.176;2022-11-03T03:14:21;10.88;;;2.40;;
36411;SDS011;22445;52.100;5.176;2022-11-03T03:16:51;10.90;;;2.53;;
36411;SDS011;22445;52.100;5.176;2022-11-03T03:22:23;9.80;;;2.40;;
36411;SDS011;22445;52.100;5.176;2022-11-03T03:25:25;7.38;;;1.65;;
36411;SDS011;22445;52.100;5.176;2022-11-03T03:27:56;8.18;;;2.20;;
36411;SDS011;22445;52.100;5.176;2022-11-03T03:30:26;12.88;;;2.10;;
36411;SDS011;22445;52.100;5.176;2022-11-03T03:32:52;8.75;;;1.85;;
36411;SDS011;22445;52.100;5.176;2022-11-03T03:35:19;15.00;;;2.78;;
36411;SDS011;22445;52.100;5.176;2022-11-03T03:37:49;11.48;;;2.22;;
36411;SDS011;22445;52.100;5.176;2022-11-03T03:40:19;9.18;;;2.28;;
36411;SDS011;22445;52.100;5.176;2022-11-03T03:42:47;11.05;;;2.75;;
36411;SDS011;22445;52.100;5.176;2022-11-03T03:45:13;11.07;;;2.38;;
36411;SDS011;22445;52.100;5.176;2022-11-03T03:47:39;12.32;;;2.70;;
36411;SDS011;22445;52.100;5.176;2022-11-03T03:50:05;9.05;;;2.15;;
36411;SDS011;22445;52.100;5.176;2022-11-03T03:52:32;15.57;;;2.67;;
36411;SDS011;22445;52.100;5.176;2022-11-03T03:54:58;7.47;;;1.88;;
36411;SDS011;22445;52.100;5.176;2022-11-03T03:57:23;7.65;;;2.30;;
36411;SDS011;22445;52.100;5.176;2022-11-03T03:59:50;7.13;;;2.10;;
36411;SDS011;22445;52.100;5.176;2022-11-03T04:02:15;13.32;;;2.63;;
36411;SDS011;22445;52.100;5.176;2022-11-03T04:04:41;8.68;;;1.90;;
36411;SDS011;22445;52.100;5.176;2022-11-03T04:07:06;5.82;;;2.10;;
36411;SDS011;22445;52.100;5.176;2022-11-03T04:09:50;5.95;;;2.10;;
36411;SDS011;22445;52.100;5.176;2022-11-03T04:12:16;11.05;;;2.40;;
36411;SDS011;22445;52.100;5.176;2022-11-03T04:15:00;11.48;;;2.25;;
36411;SDS011;22445;52.100;5.176;2022-11-03T04:17:45;8.85;;;2.13;;
36411;SDS011;22445;52.100;5.176;2022-11-03T04:20:30;8.75;;;2.05;;
36411;SDS011;22445;52.100;5.176;2022-11-03T04:23:14;9.10;;;2.10;;
36411;SDS011;22445;52.100;5.176;2022-11-03T04:25:41;9.48;;;2.08;;
36411;SDS011;22445;52.100;5.176;2022-11-03T04:28:08;11.02;;;2.00;;
36411;SDS011;22445;52.100;5.176;2022-11-03T04:30:35;10.68;;;2.22;;
36411;SDS011;22445;52.100;5.176;2022-11-03T04:33:00;14.70;;;3.08;;
36411;SDS011;22445;52.100;5.176;2022-11-03T04:35:26;12.63;;;2.25;;
36411;SDS011;22445;52.100;5.176;2022-11-03T04:38:34;14.02;;;2.28;;
36411;SDS011;22445;52.100;5.176;2022-11-03T04:41:01;10.48;;;2.67;;
36411;SDS011;22445;52.100;5.176;2022-11-03T04:43:32;9.88;;;2.13;;
36411;SDS011;22445;52.100;5.176;2022-11-03T04:45:58;8.90;;;2.20;;
36411;SDS011;22445;52.100;5.176;2022-11-03T04:48:25;9.32;;;2.20;;
36411;SDS011;22445;52.100;5.176;2022-11-03T04:50:52;13.68;;;1.95;;
36411;SDS011;22445;52.100;5.176;2022-11-03T04:53:19;8.07;;;2.03;;
36411;SDS011;22445;52.100;5.176;2022-11-03T04:55:47;10.48;;;2.33;;
36411;SDS011;22445;52.100;5.176;2022-11-03T05:00:59;6.07;;;2.30;;
36411;SDS011;22445;52.100;5.176;2022-11-03T05:03:29;12.57;;;2.75;;
36411;SDS011;22445;52.100;5.176;2022-11-03T05:05:56;13.35;;;2.42;;
36411;SDS011;22445;52.100;5.176;2022-11-03T05:08:22;10.18;;;2.42;;
36411;SDS011;22445;52.100;5.176;2022-11-03T05:10:48;9.50;;;2.17;;
36411;SDS011;22445;52.100;5.176;2022-11-03T05:13:21;9.48;;;2.17;;
36411;SDS011;22445;52.100;5.176;2022-11-03T05:15:49;10.43;;;2.22;;
36411;SDS011;22445;52.100;5.176;2022-11-03T05:18:17;10.77;;;1.90;;
36411;SDS011;22445;52.100;5.176;2022-11-03T05:20:53;6.07;;;1.80;;
36411;SDS011;22445;52.100;5.176;2022-11-03T05:23:22;6.50;;;2.08;;
36411;SDS011;22445;52.100;5.176;2022-11-03T05:25:52;9.43;;;2.40;;
36411;SDS011;22445;52.100;5.176;2022-11-03T05:28:20;14.63;;;2.40;;
36411;SDS011;22445;52.100;5.176;2022-11-03T05:30:47;16.75;;;2.95;;
36411;SDS011;22445;52.100;5.176;2022-11-03T05:33:21;11.45;;;2.83;;
36411;SDS011;22445;52.100;5.176;2022-11-03T05:35:51;7.35;;;1.63;;
36411;SDS011;22445;52.100;5.176;2022-11-03T05:38:18;7.85;;;2.38;;
36411;SDS011;22445;52.100;5.176;2022-11-03T05:40:44;10.30;;;2.40;;
36411;SDS011;22445;52.100;5.176;2022-11-03T05:43:11;11.77;;;3.03;;
36411;SDS011;22445;52.100;5.176;2022-11-03T05:45:38;6.22;;;1.95;;
36411;SDS011;22445;52.100;5.176;2022-11-03T05:48:38;9.73;;;2.30;;
36411;SDS011;22445;52.100;5.176;2022-11-03T05:51:27;8.38;;;1.92;;
36411;SDS011;22445;52.100;5.176;2022-11-03T05:53:54;9.15;;;1.92;;
36411;SDS011;22445;52.100;5.176;2022-11-03T05:56:22;11.07;;;2.05;;
36411;SDS011;22445;52.100;5.176;2022-11-03T05:58:50;12.65;;;2.20;;
36411;SDS011;22445;52.100;5.176;2022-11-03T06:01:23;8.25;;;2.63;;
36411;SDS011;22445;52.100;5.176;2022-11-03T06:03:53;6.20;;;1.58;;
36411;SDS011;22445;52.100;5.176;2022-11-03T06:09:11;11.43;;;1.95;;
36411;SDS011;22445;52.100;5.176;2022-11-03T06:11:40;8.48;;;1.50;;
36411;SDS011;22445;52.100;5.176;2022-11-03T06:14:20;7.55;;;1.80;;
36411;SDS011;22445;52.100;5.176;2022-11-03T06:16:57;7.13;;;1.92;;
36411;SDS011;22445;52.100;5.176;2022-11-03T06:19:26;10.23;;;2.38;;
36411;SDS011;22445;52.100;5.176;2022-11-03T06:22:19;10.40;;;2.58;;
36411;SDS011;22445;52.100;5.176;2022-11-03T06:28:07;9.13;;;2.03;;
36411;SDS011;22445;52.100;5.176;2022-11-03T06:30:44;8.77;;;2.45;;
36411;SDS011;22445;52.100;5.176;2022-11-03T06:36:07;6.32;;;2.10;;
36411;SDS011;22445;52.100;5.176;2022-11-03T06:38:37;10.65;;;2.28;;
36411;SDS011;22445;52.100;5.176;2022-11-03T06:41:03;5.20;;;2.00;;
36411;SDS011;22445;52.100;5.176;2022-11-03T06:46:21;10.57;;;2.08;;
36411;SDS011;22445;52.100;5.176;2022-11-03T06:48:48;8.35;;;2.10;;
36411;SDS011;22445;52.100;5.176;2022-11-03T06:51:18;8.52;;;2.00;;
36411;SDS011;22445;52.100;5.176;2022-11-03T06:53:46;7.35;;;1.95;;
36411;SDS011;22445;52.100;5.176;2022-11-03T06:56:15;4.72;;;1.90;;
36411;SDS011;22445;52.100;5.176;2022-11-03T06:58:44;9.07;;;1.83;;
36411;SDS011;22445;52.100;5.176;2022-11-03T07:01:20;9.60;;;2.22;;
36411;SDS011;22445;52.100;5.176;2022-11-03T07:03:48;13.35;;;2.83;;
36411;SDS011;22445;52.100;5.176;2022-11-03T07:06:18;7.40;;;1.75;;
36411;SDS011;22445;52.100;5.176;2022-11-03T07:08:47;9.38;;;2.22;;
36411;SDS011;22445;52.100;5.176;2022-11-03T07:11:18;12.50;;;2.28;;
36411;SDS011;22445;52.100;5.176;2022-11-03T07:13:45;8.90;;;1.67;;
36411;SDS011;22445;52.100;5.176;2022-11-03T07:19:04;8.18;;;1.90;;
36411;SDS011;22445;52.100;5.176;2022-11-03T07:21:43;12.00;;;2.35;;
36411;SDS011;22445;52.100;5.176;2022-11-03T07:29:51;10.70;;;1.92;;
36411;SDS011;22445;52.100;5.176;2022-11-03T07:32:18;6.20;;;1.67;;
36411;SDS011;22445;52.100;5.176;2022-11-03T07:34:46;5.88;;;1.63;;
36411;SDS011;22445;52.100;5.176;2022-11-03T07:37:19;8.25;;;1.85;;
36411;SDS011;22445;52.100;5.176;2022-11-03T07:39:46;9.98;;;2.30;;
36411;SDS011;22445;52.100;5.176;2022-11-03T07:42:22;7.05;;;2.65;;
36411;SDS011;22445;52.100;5.176;2022-11-03T07:44:49;10.82;;;2.28;;
36411;SDS011;22445;52.100;5.176;2022-11-03T07:47:19;10.95;;;1.98;;
36411;SDS011;22445;52.100;5.176;2022-11-03T07:49:46;9.68;;;2.42;;
36411;SDS011;22445;52.100;5.176;2022-11-03T07:52:17;8.45;;;1.80;;
36411;SDS011;22445;52.100;5.176;2022-11-03T07:54:44;11.63;;;2.40;;
36411;SDS011;22445;52.100;5.176;2022-11-03T07:57:12;8.32;;;2.13;;
36411;SDS011;22445;52.100;5.176;2022-11-03T08:05:15;8.15;;;2.45;;
36411;SDS011;22445;52.100;5.176;2022-11-03T08:07:41;11.43;;;2.20;;
36411;SDS011;22445;52.100;5.176;2022-11-03T08:10:06;8.88;;;2.17;;
36411;SDS011;22445;52.100;5.176;2022-11-03T08:12:32;9.82;;;2.15;;
36411;SDS011;22445;52.100;5.176;2022-11-03T08:14:58;8.90;;;1.85;;
36411;SDS011;22445;52.100;5.176;2022-11-03T08:17:23;4.82;;;1.70;;
36411;SDS011;22445;52.100;5.176;2022-11-03T08:19:49;11.45;;;2.17;;
36411;SDS011;22445;52.100;5.176;2022-11-03T08:22:15;12.68;;;2.22;;
36411;SDS011;22445;52.100;5.176;2022-11-03T08:24:40;6.20;;;2.28;;
36411;SDS011;22445;52.100;5.176;2022-11-03T08:27:05;8.93;;;2.38;;
36411;SDS011;22445;52.100;5.176;2022-11-03T08:29:31;9.07;;;2.83;;
36411;SDS011;22445;52.100;5.176;2022-11-03T08:31:56;9.48;;;2.47;;
36411;SDS011;22445;52.100;5.176;2022-11-03T08:34:22;7.57;;;2.63;;
36411;SDS011;22445;52.100;5.176;2022-11-03T08:36:47;10.50;;;2.50;;
36411;SDS011;22445;52.100;5.176;2022-11-03T08:39:13;7.72;;;2.55;;
36411;SDS011;22445;52.100;5.176;2022-11-03T08:41:38;9.07;;;2.13;;
36411;SDS011;22445;52.100;5.176;2022-11-03T08:44:04;9.30;;;2.17;;
36411;SDS011;22445;52.100;5.176;2022-11-03T08:46:30;8.75;;;2.33;;
36411;SDS011;22445;52.100;5.176;2022-11-03T08:48:55;7.25;;;1.88;;
36411;SDS011;22445;52.100;5.176;2022-11-03T08:51:21;7.57;;;2.10;;
36411;SDS011;22445;52.100;5.176;2022-11-03T08:53:47;12.70;;;2.40;;
36411;SDS011;22445;52.100;5.176;2022-11-03T08:56:14;8.40;;;2.25;;
36411;SDS011;22445;52.100;5.176;2022-11-03T08:58:40;10.25;;;2.15;;
36411;SDS011;22445;52.100;5.176;2022-11-03T09:01:07;6.75;;;2.22;;
36411;SDS011;22445;52.100;5.176;2022-11-03T09:03:33;7.78;;;2.70;;
36411;SDS011;22445;52.100;5.176;2022-11-03T09:05:58;11.32;;;2.50;;
36411;SDS011;22445;52.100;5.176;2022-11-03T09:08:24;7.28;;;2.45;;
36411;SDS011;22445;52.100;5.176;2022-11-03T09:10:49;10.00;;;2.45;;
36411;SDS011;22445;52.100;5.176;2022-11-03T09:13:15;8.18;;;2.17;;
36411;SDS011;22445;52.100;5.176;2022-11-03T09:15:40;10.50;;;2.67;;
36411;SDS011;22445;52.100;5.176;2022-11-03T09:18:06;12.70;;;2.47;;
36411;SDS011;22445;52.100;5.176;2022-11-03T09:20:31;6.03;;;2.10;;
36411;SDS011;22445;52.100;5.176;2022-11-03T09:22:57;8.98;;;2.72;;
36411;SDS011;22445;52.100;5.176;2022-11-03T09:25:22;9.20;;;2.45;;
36411;SDS011;22445;52.100;5.176;2022-11-03T09:27:48;10.68;;;2.35;;
36411;SDS011;22445;52.100;5.176;2022-11-03T09:30:13;7.70;;;2.28;;
36411;SDS011;22445;52.100;5.176;2022-11-03T09:32:39;11.55;;;2.65;;
36411;SDS011;22445;52.100;5.176;2022-11-03T09:35:05;9.02;;;2.28;;
36411;SDS011;22445;52.100;5.176;2022-11-03T09:37:31;7.82;;;1.95;;
36411;SDS011;22445;52.100;5.176;2022-11-03T09:39:57;8.40;;;2.13;;
36411;SDS011;22445;52.100;5.176;2022-11-03T09:42:22;13.52;;;3.17;;
36411;SDS011;22445;52.100;5.176;2022-11-03T09:44:49;6.53;;;2.40;;
36411;SDS011;22445;52.100;5.176;2022-11-03T09:47:26;9.18;;;2.05;;
36411;SDS011;22445;52.100;5.176;2022-11-03T09:49:53;11.32;;;2.75;;
36411;SDS011;22445;52.100;5.176;2022-11-03T09:52:20;7.05;;;2.13;;
36411;SDS011;22445;52.100;5.176;2022-11-03T09:54:47;8.82;;;2.47;;
36411;SDS011;22445;52.100;5.176;2022-11-03T09:57:14;11.68;;;2.78;;
36411;SDS011;22445;52.100;5.176;2022-11-03T09:59:44;6.28;;;2.28;;
36411;SDS011;22445;52.100;5.176;2022-11-03T10:02:18;9.45;;;2.63;;
36411;SDS011;22445;52.100;5.176;2022-11-03T10:04:57;5.55;;;2.28;;
36411;SDS011;22445;52.100;5.176;2022-11-03T10:07:25;6.72;;;1.65;;
36411;SDS011;22445;52.100;5.176;2022-11-03T10:09:52;5.88;;;2.00;;
36411;SDS011;22445;52.100;5.176;2022-11-03T10:12:19;4.60;;;1.67;;
36411;SDS011;22445;52.100;5.176;2022-11-03T10:14:45;8.50;;;2.53;;
36411;SDS011;22445;52.100;5.176;2022-11-03T10:17:16;5.22;;;1.52;;
36411;SDS011;22445;52.100;5.176;2022-11-03T10:19:44;7.55;;;1.98;;
36411;SDS011;22445;52.100;5.176;2022-11-03T10:22:12;8.35;;;1.90;;
36411;SDS011;22445;52.100;5.176;2022-11-03T10:24:37;7.07;;;1.95;;
36411;SDS011;22445;52.100;5.176;2022-11-03T10:27:03;6.50;;;2.15;;
36411;SDS011;22445;52.100;5.176;2022-11-03T10:29:28;6.32;;;1.95;;
36411;SDS011;22445;52.100;5.176;2022-11-03T10:31:55;10.43;;;2.40;;
36411;SDS011;22445;52.100;5.176;2022-11-03T10:37:44;9.63;;;1.77;;
36411;SDS011;22445;52.100;5.176;2022-11-03T10:40:04;8.25;;;2.00;;
36411;SDS011;22445;52.100;5.176;2022-11-03T10:42:59;4.35;;;1.92;;
36411;SDS011;22445;52.100;5.176;2022-11-03T10:45:25;9.73;;;1.48;;
36411;SDS011;22445;52.100;5.176;2022-11-03T10:48:00;5.85;;;1.65;;
36411;SDS011;22445;52.100;5.176;2022-11-03T10:50:29;6.72;;;1.95;;
36411;SDS011;22445;52.100;5.176;2022-11-03T10:52:54;6.13;;;1.90;;
36411;SDS011;22445;52.100;5.176;2022-11-03T10:55:21;4.80;;;1.90;;
36411;SDS011;22445;52.100;5.176;2022-11-03T10:57:47;4.32;;;1.52;;
36411;SDS011;22445;52.100;5.176;2022-11-03T11:00:14;5.80;;;1.80;;
36411;SDS011;22445;52.100;5.176;2022-11-03T11:02:44;8.45;;;1.98;;
36411;SDS011;22445;52.100;5.176;2022-11-03T11:05:12;8.43;;;1.63;;
36411;SDS011;22445;52.100;5.176;2022-11-03T11:07:48;4.50;;;1.63;;
36411;SDS011;22445;52.100;5.176;2022-11-03T11:15:55;4.25;;;1.23;;
36411;SDS011;22445;52.100;5.176;2022-11-03T11:33:27;8.23;;;1.67;;
36411;SDS011;22445;52.100;5.176;2022-11-03T11:49:14;4.63;;;1.67;;
36411;SDS011;22445;52.100;5.176;2022-11-03T11:51:40;4.75;;;1.40;;
36411;SDS011;22445;52.100;5.176;2022-11-03T11:54:07;3.60;;;1.17;;
36411;SDS011;22445;52.100;5.176;2022-11-03T11:56:39;6.13;;;1.45;;
36411;SDS011;22445;52.100;5.176;2022-11-03T11:59:11;1.88;;;0.73;;
36411;SDS011;22445;52.100;5.176;2022-11-03T12:01:40;3.25;;;1.33;;
36411;SDS011;22445;52.100;5.176;2022-11-03T12:04:18;4.95;;;1.63;;
36411;SDS011;22445;52.100;5.176;2022-11-03T12:06:46;2.72;;;1.40;;
36411;SDS011;22445;52.100;5.176;2022-11-03T12:11:58;4.35;;;1.15;;
36411;SDS011;22445;52.100;5.176;2022-11-03T12:19:58;4.30;;;1.45;;
36411;SDS011;22445;52.100;5.176;2022-11-03T12:25:31;3.90;;;1.40;;
36411;SDS011;22445;52.100;5.176;2022-11-03T12:28:01;6.70;;;1.60;;
36411;SDS011;22445;52.100;5.176;2022-11-03T12:30:27;5.05;;;1.38;;
36411;SDS011;22445;52.100;5.176;2022-11-03T12:32:52;4.82;;;1.52;;
36411;SDS011;22445;52.100;5.176;2022-11-03T12:35:18;6.60;;;1.75;;
36411;SDS011;22445;52.100;5.176;2022-11-03T12:37:44;3.63;;;1.38;;
36411;SDS011;22445;52.100;5.176;2022-11-03T12:40:10;5.50;;;1.98;;
36411;SDS011;22445;52.100;5.176;2022-11-03T12:42:37;5.80;;;2.20;;
36411;SDS011;22445;52.100;5.176;2022-11-03T12:45:03;4.85;;;1.45;;
36411;SDS011;22445;52.100;5.176;2022-11-03T12:47:29;2.92;;;1.02;;
36411;SDS011;22445;52.100;5.176;2022-11-03T12:49:54;4.35;;;1.38;;
36411;SDS011;22445;52.100;5.176;2022-11-03T12:52:20;4.72;;;1.58;;
36411;SDS011;22445;52.100;5.176;2022-11-03T12:54:45;3.95;;;1.35;;
36411;SDS011;22445;52.100;5.176;2022-11-03T12:57:11;5.80;;;1.55;;
36411;SDS011;22445;52.100;5.176;2022-11-03T12:59:36;4.82;;;1.50;;
36411;SDS011;22445;52.100;5.176;2022-11-03T13:02:02;3.03;;;1.23;;
36411;SDS011;22445;52.100;5.176;2022-11-03T13:04:28;6.03;;;1.40;;
36411;SDS011;22445;52.100;5.176;2022-11-03T13:06:53;4.80;;;1.58;;
36411;SDS011;22445;52.100;5.176;2022-11-03T13:09:19;5.22;;;1.27;;
36411;SDS011;22445;52.100;5.176;2022-11-03T13:11:45;3.28;;;1.40;;
36411;SDS011;22445;52.100;5.176;2022-11-03T13:14:29;3.50;;;1.20;;
36411;SDS011;22445;52.100;5.176;2022-11-03T13:16:54;2.88;;;1.23;;
36411;SDS011;22445;52.100;5.176;2022-11-03T13:19:20;6.70;;;1.55;;
36411;SDS011;22445;52.100;5.176;2022-11-03T13:21:45;4.78;;;1.27;;
36411;SDS011;22445;52.100;5.176;2022-11-03T13:24:11;4.15;;;1.58;;
36411;SDS011;22445;52.100;5.176;2022-11-03T13:26:36;3.72;;;1.35;;
36411;SDS011;22445;52.100;5.176;2022-11-03T13:29:02;3.13;;;1.27;;
36411;SDS011;22445;52.100;5.176;2022-11-03T13:31:27;4.28;;;1.17;;
36411;SDS011;22445;52.100;5.176;2022-11-03T13:33:53;4.55;;;1.50;;
36411;SDS011;22445;52.100;5.176;2022-11-03T13:36:19;4.32;;;1.80;;
36411;SDS011;22445;52.100;5.176;2022-11-03T13:38:44;4.30;;;1.80;;
36411;SDS011;22445;52.100;5.176;2022-11-03T13:41:10;3.40;;;1.13;;
36411;SDS011;22445;52.100;5.176;2022-11-03T13:43:35;6.28;;;1.33;;
36411;SDS011;22445;52.100;5.176;2022-11-03T13:46:01;3.63;;;1.23;;
36411;SDS011;22445;52.100;5.176;2022-11-03T13:48:28;2.83;;;1.05;;
36411;SDS011;22445;52.100;5.176;2022-11-03T13:50:53;5.30;;;1.52;;
36411;SDS011;22445;52.100;5.176;2022-11-03T13:53:20;6.75;;;1.42;;
36411;SDS011;22445;52.100;5.176;2022-11-03T13:55:46;4.10;;;1.02;;
36411;SDS011;22445;52.100;5.176;2022-11-03T13:58:11;5.25;;;1.58;;
36411;SDS011;22445;52.100;5.176;2022-11-03T14:00:37;3.78;;;1.40;;
36411;SDS011;22445;52.100;5.176;2022-11-03T14:03:02;3.05;;;0.77;;
36411;SDS011;22445;52.100;5.176;2022-11-03T14:05:28;3.60;;;1.15;;
36411;SDS011;22445;52.100;5.176;2022-11-03T14:07:53;6.43;;;1.50;;
36411;SDS011;22445;52.100;5.176;2022-11-03T14:10:19;2.50;;;1.00;;
36411;SDS011;22445;52.100;5.176;2022-11-03T14:12:44;4.03;;;1.10;;
36411;SDS011;22445;52.100;5.176;2022-11-03T14:15:10;4.85;;;1.40;;
36411;SDS011;22445;52.100;5.176;2022-11-03T14:17:36;4.25;;;1.20;;
36411;SDS011;22445;52.100;5.176;2022-11-03T14:20:04;4.28;;;1.20;;
36411;SDS011;22445;52.100;5.176;2022-11-03T14:22:31;5.47;;;1.38;;
36411;SDS011;22445;52.100;5.176;2022-11-03T14:24:56;4.22;;;1.10;;
36411;SDS011;22445;52.100;5.176;2022-11-03T14:27:22;2.05;;;1.10;;
36411;SDS011;22445;52.100;5.176;2022-11-03T14:29:48;4.82;;;1.45;;
36411;SDS011;22445;52.100;5.176;2022-11-03T14:32:14;2.25;;;1.00;;
36411;SDS011;22445;52.100;5.176;2022-11-03T14:34:39;4.38;;;1.05;;
36411;SDS011;22445;52.100;5.176;2022-11-03T14:37:06;4.82;;;1.30;;
36411;SDS011;22445;52.100;5.176;2022-11-03T14:39:35;6.05;;;1.42;;
36411;SDS011;22445;52.100;5.176;2022-11-03T14:42:01;4.13;;;1.60;;
36411;SDS011;22445;52.100;5.176;2022-11-03T14:44:31;4.40;;;1.40;;
36411;SDS011;22445;52.100;5.176;2022-11-03T14:46:58;4.93;;;1.52;;
36411;SDS011;22445;52.100;5.176;2022-11-03T14:49:25;5.47;;;1.02;;
36411;SDS011;22445;52.100;5.176;2022-11-03T14:51:52;6.45;;;1.70;;
36411;SDS011;22445;52.100;5.176;2022-11-03T14:54:17;6.50;;;1.60;;
36411;SDS011;22445;52.100;5.176;2022-11-03T14:56:43;3.88;;;1.20;;
36411;SDS011;22445;52.100;5.176;2022-11-03T14:59:08;4.40;;;1.30;;
36411;SDS011;22445;52.100;5.176;2022-11-03T15:01:34;4.65;;;1.38;;
36411;SDS011;22445;52.100;5.176;2022-11-03T15:04:01;4.53;;;1.15;;
36411;SDS011;22445;52.100;5.176;2022-11-03T15:06:27;3.15;;;1.02;;
36411;SDS011;22445;52.100;5.176;2022-11-03T15:08:52;3.58;;;1.40;;
36411;SDS011;22445;52.100;5.176;2022-11-03T15:11:18;5.45;;;1.65;;
36411;SDS011;22445;52.100;5.176;2022-11-03T15:13:43;3.58;;;1.23;;
36411;SDS011;22445;52.100;5.176;2022-11-03T15:16:09;2.22;;;1.02;;
36411;SDS011;22445;52.100;5.176;2022-11-03T15:21:12;5.90;;;1.52;;
36411;SDS011;22445;52.100;5.176;2022-11-03T15:28:51;4.97;;;1.50;;
36411;SDS011;22445;52.100;5.176;2022-11-03T15:31:16;7.28;;;1.67;;
36411;SDS011;22445;52.100;5.176;2022-11-03T15:33:42;4.82;;;1.33;;
36411;SDS011;22445;52.100;5.176;2022-11-03T15:36:07;2.70;;;1.30;;
36411;SDS011;22445;52.100;5.176;2022-11-03T15:43:43;5.85;;;1.50;;
36411;SDS011;22445;52.100;5.176;2022-11-03T15:46:10;3.92;;;1.38;;
36411;SDS011;22445;52.100;5.176;2022-11-03T15:48:36;3.45;;;1.33;;
36411;SDS011;22445;52.100;5.176;2022-11-03T15:51:03;4.38;;;1.65;;
36411;SDS011;22445;52.100;5.176;2022-11-03T15:53:29;4.18;;;1.45;;
36411;SDS011;22445;52.100;5.176;2022-11-03T15:55:55;2.42;;;1.30;;
36411;SDS011;22445;52.100;5.176;2022-11-03T15:58:21;5.45;;;1.33;;
36411;SDS011;22445;52.100;5.176;2022-11-03T16:00:46;3.45;;;1.60;;
36411;SDS011;22445;52.100;5.176;2022-11-03T16:03:12;4.88;;;1.65;;
36411;SDS011;22445;52.100;5.176;2022-11-03T16:08:09;9.82;;;2.15;;
36411;SDS011;22445;52.100;5.176;2022-11-03T16:10:35;8.18;;;1.90;;
36411;SDS011;22445;52.100;5.176;2022-11-03T16:13:00;4.03;;;1.60;;
36411;SDS011;22445;52.100;5.176;2022-11-03T16:15:26;4.30;;;1.60;;
36411;SDS011;22445;52.100;5.176;2022-11-03T16:17:51;3.90;;;1.73;;
36411;SDS011;22445;52.100;5.176;2022-11-03T16:20:17;4.50;;;1.92;;
36411;SDS011;22445;52.100;5.176;2022-11-03T16:22:44;5.90;;;2.00;;
36411;SDS011;22445;52.100;5.176;2022-11-03T16:25:10;2.42;;;1.80;;
36411;SDS011;22445;52.100;5.176;2022-11-03T16:27:35;7.10;;;1.88;;
36411;SDS011;22445;52.100;5.176;2022-11-03T16:30:01;7.05;;;1.88;;
36411;SDS011;22445;52.100;5.176;2022-11-03T16:32:26;4.28;;;1.90;;
36411;SDS011;22445;52.100;5.176;2022-11-03T16:34:52;3.53;;;1.95;;
36411;SDS011;22445;52.100;5.176;2022-11-03T16:37:18;3.78;;;2.08;;
36411;SDS011;22445;52.100;5.176;2022-11-03T16:39:43;4.75;;;2.05;;
36411;SDS011;22445;52.100;5.176;2022-11-03T16:42:09;5.78;;;2.13;;
36411;SDS011;22445;52.100;5.176;2022-11-03T16:44:35;3.90;;;1.88;;
36411;SDS011;22445;52.100;5.176;2022-11-03T16:47:00;5.65;;;2.60;;
36411;SDS011;22445;52.100;5.176;2022-11-03T16:49:25;4.60;;;2.40;;